createdAt,value
2022-10-28T00:01:02.905Z,100.00
2022-10-28T00:04:11.282Z,100.00
2022-10-28T00:07:16.947Z,100.00
2022-10-28T00:10:22.412Z,100.00
2022-10-28T00:13:27.584Z,100.00
2022-10-28T00:16:33.946Z,100.00
2022-10-28T00:19:39.219Z,100.00
2022-10-28T00:22:49.253Z,100.00
2022-10-28T00:25:56.647Z,100.00
2022-10-28T00:29:04.244Z,100.00
2022-10-28T00:32:11.715Z,100.00
2022-10-28T00:35:17.163Z,100.00
2022-10-28T00:38:22.486Z,100.00
2022-10-28T00:41:29.008Z,100.00
2022-10-28T00:44:51.292Z,100.00
2022-10-28T00:47:58.414Z,100.00
2022-10-28T00:51:06.721Z,100.00
2022-10-28T00:54:13.155Z,100.00
2022-10-28T00:57:24.254Z,100.00
2022-10-28T01:00:31.916Z,100.00
2022-10-28T01:03:37.126Z,100.00
2022-10-28T01:06:44.117Z,100.00
2022-10-28T01:09:49.285Z,100.00
2022-10-28T01:13:00.866Z,100.00
2022-10-28T01:16:11.619Z,100.00
2022-10-28T01:19:33.233Z,100.00
2022-10-28T01:22:43.584Z,100.00
2022-10-28T01:26:00.399Z,100.00
2022-10-28T01:29:31.413Z,100.00
2022-10-28T01:32:42.408Z,100.00
2022-10-28T01:35:52.420Z,100.00
2022-10-28T01:39:02.228Z,100.00
2022-10-28T01:42:15.226Z,100.00
2022-10-28T01:45:24.146Z,100.00
2022-10-28T01:48:32.887Z,100.00
2022-10-28T01:51:39.839Z,100.00
2022-10-28T01:54:48.377Z,100.00
2022-10-28T01:57:55.864Z,100.00
2022-10-28T02:01:06.130Z,100.00
2022-10-28T02:04:12.065Z,100.00
2022-10-28T02:07:17.812Z,100.00
2022-10-28T02:10:27.882Z,100.00
2022-10-28T02:13:39.098Z,100.00
2022-10-28T02:16:49.162Z,100.00
2022-10-28T02:19:59.798Z,100.00
2022-10-28T02:23:11.246Z,100.00
2022-10-28T02:26:21.886Z,100.00
2022-10-28T02:29:31.860Z,100.00
2022-10-28T02:32:39.557Z,100.00
2022-10-28T02:35:47.507Z,100.00
2022-10-28T02:38:54.960Z,100.00
2022-10-28T02:42:02.679Z,100.00
2022-10-28T02:45:13.750Z,100.00
2022-10-28T02:48:20.493Z,100.00
2022-10-28T02:51:28.631Z,100.00
2022-10-28T02:54:35.867Z,100.00
2022-10-28T02:57:42.858Z,100.00
2022-10-28T03:00:49.964Z,100.00
2022-10-28T03:03:55.107Z,100.00
2022-10-28T03:07:00.445Z,100.00
2022-10-28T03:10:08.337Z,100.00
2022-10-28T03:13:13.561Z,100.00
2022-10-28T03:16:23.094Z,100.00
2022-10-28T03:19:28.307Z,100.00
2022-10-28T03:22:33.598Z,100.00
2022-10-28T03:25:38.879Z,100.00
2022-10-28T03:28:44.691Z,100.00
2022-10-28T03:31:52.967Z,100.00
2022-10-28T03:34:58.150Z,100.00
2022-10-28T03:38:03.157Z,100.00
2022-10-28T03:41:08.409Z,100.00
2022-10-28T03:44:16.715Z,100.00
2022-10-28T03:47:21.914Z,100.00
2022-10-28T03:50:26.820Z,100.00
2022-10-28T03:53:32.072Z,100.00
2022-10-28T03:56:39.530Z,100.00
2022-10-28T03:59:44.817Z,100.00
2022-10-28T04:02:52.839Z,100.00
2022-10-28T04:05:58.562Z,100.00
2022-10-28T04:09:04.042Z,100.00
2022-10-28T04:12:11.151Z,100.00
2022-10-28T04:15:16.611Z,100.00
2022-10-28T04:18:24.497Z,100.00
2022-10-28T04:21:30.253Z,100.00
2022-10-28T04:24:35.792Z,100.00
2022-10-28T04:27:41.285Z,100.00
2022-10-28T04:30:47.251Z,100.00
2022-10-28T04:33:52.487Z,100.00
2022-10-28T04:36:57.711Z,100.00
2022-10-28T04:40:03.020Z,100.00
2022-10-28T04:43:09.980Z,100.00
2022-10-28T04:46:15.722Z,100.00
2022-10-28T04:49:22.055Z,100.00
2022-10-28T04:52:30.270Z,100.00
2022-10-28T04:55:35.588Z,100.00
2022-10-28T04:58:41.351Z,100.00
2022-10-28T05:01:46.822Z,100.00
2022-10-28T05:04:52.089Z,100.00
2022-10-28T05:07:57.525Z,100.00
2022-10-28T05:11:02.855Z,100.00
2022-10-28T05:14:09.523Z,100.00
2022-10-28T05:17:14.817Z,100.00
2022-10-28T05:20:21.112Z,100.00
2022-10-28T05:23:30.835Z,100.00
2022-10-28T05:26:36.251Z,100.00
2022-10-28T05:29:41.618Z,100.00
2022-10-28T05:32:49.232Z,100.00
2022-10-28T05:35:57.084Z,100.00
2022-10-28T05:39:02.484Z,100.00
2022-10-28T05:42:07.737Z,100.00
2022-10-28T05:45:13.527Z,100.00
2022-10-28T05:48:18.826Z,100.00
2022-10-28T05:51:24.350Z,100.00
2022-10-28T05:54:29.540Z,100.00
2022-10-28T05:57:36.495Z,100.00
2022-10-28T06:00:41.930Z,100.00
2022-10-28T06:03:47.324Z,100.00
2022-10-28T06:06:55.308Z,100.00
2022-10-28T06:10:00.552Z,100.00
2022-10-28T06:13:04.577Z,100.00
2022-10-28T06:16:09.880Z,100.00
2022-10-28T06:19:15.093Z,100.00
2022-10-28T06:22:20.430Z,100.00
2022-10-28T06:25:26.391Z,100.00
2022-10-28T06:28:31.779Z,100.00
2022-10-28T06:31:39.637Z,100.00
2022-10-28T06:34:44.942Z,100.00
2022-10-28T06:37:55.350Z,100.00
2022-10-28T06:41:00.957Z,100.00
2022-10-28T06:44:06.458Z,100.00
2022-10-28T06:47:13.325Z,100.00
2022-10-28T06:50:18.689Z,100.00
2022-10-28T06:53:24.238Z,100.00
2022-10-28T06:56:29.468Z,100.00
2022-10-28T06:59:34.872Z,100.00
2022-10-28T07:02:42.839Z,100.00
2022-10-28T07:05:51.740Z,100.00
2022-10-28T07:08:57.072Z,100.00
2022-10-28T07:12:05.102Z,100.00
2022-10-28T07:15:12.442Z,100.00
2022-10-28T07:18:17.624Z,100.00
2022-10-28T07:21:28.527Z,100.00
2022-10-28T07:24:34.096Z,100.00
2022-10-28T07:27:39.279Z,100.00
2022-10-28T07:30:44.577Z,100.00
2022-10-28T07:33:53.801Z,100.00
2022-10-28T07:36:59.320Z,100.00
2022-10-28T07:40:04.938Z,100.00
2022-10-28T07:43:10.280Z,100.00
2022-10-28T07:46:16.167Z,100.00
2022-10-28T07:49:21.441Z,100.00
2022-10-28T07:52:26.654Z,100.00
2022-10-28T07:55:31.991Z,100.00
2022-10-28T07:58:37.849Z,100.00
2022-10-28T08:01:43.355Z,100.00
2022-10-28T08:04:51.028Z,100.00
2022-10-28T08:07:56.703Z,100.00
2022-10-28T08:11:09.240Z,100.00
2022-10-28T08:14:14.503Z,100.00
2022-10-28T08:17:22.646Z,100.00
2022-10-28T08:20:27.894Z,100.00
2022-10-28T08:23:33.532Z,100.00
2022-10-28T08:26:38.800Z,100.00
2022-10-28T08:29:43.915Z,100.00
2022-10-28T08:32:49.223Z,100.00
2022-10-28T08:35:54.638Z,100.00
2022-10-28T08:39:01.742Z,100.00
2022-10-28T08:42:18.544Z,100.00
2022-10-28T08:45:27.092Z,100.00
2022-10-28T08:48:34.802Z,100.00
2022-10-28T08:51:43.259Z,100.00
2022-10-28T08:54:52.350Z,100.00
2022-10-28T08:57:59.240Z,100.00
2022-10-28T09:01:06.371Z,100.00
2022-10-28T09:04:21.318Z,100.00
2022-10-28T09:07:26.866Z,100.00
2022-10-28T09:10:42.493Z,100.00
2022-10-28T09:13:55.606Z,100.00
2022-10-28T09:17:07.996Z,100.00
2022-10-28T09:20:18.471Z,100.00
2022-10-28T09:23:45.462Z,100.00
2022-10-28T09:26:53.879Z,100.00
2022-10-28T09:30:06.111Z,100.00
2022-10-28T09:33:17.938Z,100.00
2022-10-28T09:36:26.114Z,100.00
2022-10-28T09:39:33.380Z,100.00
2022-10-28T09:42:41.752Z,100.00
2022-10-28T09:45:49.256Z,100.00
2022-10-28T09:48:56.816Z,100.00
2022-10-28T09:52:05.607Z,100.00
2022-10-28T09:55:20.201Z,100.00
2022-10-28T09:58:25.681Z,99.81
2022-10-28T10:01:48.899Z,99.85
2022-10-28T10:04:54.455Z,98.84
2022-10-28T10:08:18.939Z,96.93
2022-10-28T10:11:28.767Z,96.94
2022-10-28T10:14:38.018Z,95.22
2022-10-28T10:18:02.295Z,95.59
2022-10-28T10:21:07.785Z,95.23
2022-10-28T10:24:30.764Z,94.60
2022-10-28T10:27:36.021Z,93.73
2022-10-28T10:30:46.694Z,92.48
2022-10-28T10:34:19.653Z,92.54
2022-10-28T10:37:25.055Z,90.83
2022-10-28T10:40:32.183Z,90.69
2022-10-28T10:43:37.858Z,90.21
2022-10-28T10:46:44.442Z,89.90
2022-10-28T10:49:55.151Z,89.62
2022-10-28T10:53:01.563Z,89.58
2022-10-28T10:56:26.569Z,88.81
2022-10-28T10:59:50.648Z,88.20
2022-10-28T11:02:56.250Z,88.14
2022-10-28T11:09:48.461Z,84.57
2022-10-28T11:12:55.420Z,84.05
2022-10-28T11:16:20.608Z,84.40
2022-10-28T11:19:29.688Z,84.64
2022-10-28T11:22:44.240Z,83.95
2022-10-28T11:25:51.071Z,83.09
2022-10-28T11:29:07.603Z,81.91
2022-10-28T11:33:01.400Z,81.92
2022-10-28T11:36:16.899Z,81.65
2022-10-28T11:39:26.463Z,81.44
2022-10-28T11:42:52.730Z,80.41
2022-10-28T11:46:04.752Z,78.61
2022-10-28T11:49:23.020Z,78.12
2022-10-28T11:52:35.271Z,76.31
2022-10-28T11:56:04.587Z,75.22
2022-10-28T11:59:45.387Z,73.50
2022-10-28T12:02:57.949Z,72.47
2022-10-28T12:06:11.299Z,72.06
2022-10-28T12:09:24.816Z,71.66
2022-10-28T12:12:33.105Z,71.75
2022-10-28T12:15:44.932Z,71.75
2022-10-28T12:18:53.999Z,71.97
2022-10-28T12:22:23.473Z,71.33
2022-10-28T12:25:30.033Z,70.94
2022-10-28T12:28:42.190Z,70.94
2022-10-28T12:32:06.756Z,70.51
2022-10-28T12:35:17.292Z,69.39
2022-10-28T12:38:26.662Z,69.09
2022-10-28T12:41:44.038Z,69.02
2022-10-28T12:44:52.948Z,68.89
2022-10-28T12:48:01.968Z,66.79
2022-10-28T12:51:13.609Z,65.63
2022-10-28T12:54:23.012Z,66.11
2022-10-28T12:57:30.483Z,66.61
2022-10-28T13:00:55.589Z,66.72
2022-10-28T13:04:19.487Z,65.72
2022-10-28T13:07:33.405Z,66.12
2022-10-28T13:10:42.309Z,65.39
2022-10-28T13:13:52.969Z,66.16
2022-10-28T13:17:15.816Z,66.54
2022-10-28T13:20:25.898Z,66.98
2022-10-28T13:23:36.385Z,67.90
2022-10-28T13:26:43.557Z,68.43
2022-10-28T13:29:52.553Z,69.10
2022-10-28T13:33:04.609Z,69.67
2022-10-28T13:36:11.759Z,69.27
2022-10-28T13:39:25.849Z,68.95
2022-10-28T13:42:54.023Z,68.89
2022-10-28T13:49:24.376Z,68.48
2022-10-28T13:52:48.023Z,68.25
2022-10-28T13:55:57.713Z,68.59
2022-10-28T13:59:05.296Z,68.68
2022-10-28T14:02:35.679Z,69.17
2022-10-28T14:05:55.771Z,69.57
2022-10-28T14:09:01.361Z,69.54
2022-10-28T14:12:26.886Z,69.86
2022-10-28T14:15:32.968Z,69.78
2022-10-28T14:18:43.838Z,69.89
2022-10-28T14:21:56.381Z,70.23
2022-10-28T14:25:24.698Z,70.79
2022-10-28T14:28:57.362Z,71.06
2022-10-28T14:32:22.734Z,71.34
2022-10-28T14:35:30.839Z,71.50
2022-10-28T14:38:50.876Z,72.08
2022-10-28T14:42:06.760Z,72.72
2022-10-28T14:45:21.705Z,73.50
2022-10-28T14:48:46.214Z,73.94
2022-10-28T14:51:52.484Z,74.65
2022-10-28T14:54:59.411Z,75.19
2022-10-28T14:58:21.108Z,75.62
2022-10-28T15:01:56.073Z,75.87
2022-10-28T15:05:03.194Z,76.17
2022-10-28T15:08:11.524Z,76.28
2022-10-28T15:11:35.034Z,76.85
2022-10-28T15:14:42.638Z,77.00
2022-10-28T15:17:48.080Z,77.63
2022-10-28T15:21:11.411Z,77.79
2022-10-28T15:24:16.831Z,78.17
2022-10-28T15:27:23.055Z,78.83
2022-10-28T15:30:28.523Z,79.52
2022-10-28T15:33:38.212Z,79.97
2022-10-28T15:37:01.129Z,80.75
2022-10-28T15:40:21.364Z,81.53
2022-10-28T15:43:30.035Z,82.17
2022-10-28T15:46:35.843Z,82.85
2022-10-28T15:49:41.734Z,83.12
2022-10-28T15:53:23.469Z,83.79
2022-10-28T15:56:28.978Z,84.11
2022-10-28T15:59:36.671Z,84.61
2022-10-28T16:02:43.093Z,84.85
2022-10-28T16:05:49.275Z,85.38
2022-10-28T16:09:19.266Z,85.80
2022-10-28T16:12:26.544Z,86.35
2022-10-28T16:15:52.417Z,87.04
2022-10-28T16:19:03.352Z,87.48
2022-10-28T16:22:27.394Z,88.03
2022-10-28T16:25:50.572Z,88.70
2022-10-28T16:29:13.369Z,89.21
2022-10-28T16:32:20.868Z,89.63
2022-10-28T16:35:26.684Z,90.37
2022-10-28T16:38:32.499Z,90.78
2022-10-28T16:41:56.096Z,91.18
2022-10-28T16:45:01.442Z,91.86
2022-10-28T16:48:25.436Z,92.28
2022-10-28T16:51:30.754Z,92.76
2022-10-28T16:54:36.134Z,93.09
2022-10-28T16:57:41.588Z,93.33
2022-10-28T17:01:05.144Z,93.82
2022-10-28T17:04:10.883Z,93.95
2022-10-28T17:07:17.872Z,94.42
2022-10-28T17:10:43.354Z,94.65
2022-10-28T17:13:49.072Z,94.97
2022-10-28T17:16:54.492Z,95.39
2022-10-28T17:19:59.993Z,95.96
2022-10-28T17:23:23.190Z,95.89
2022-10-28T17:26:28.628Z,96.10
2022-10-28T17:29:37.014Z,96.49
2022-10-28T17:32:43.899Z,96.78
2022-10-28T17:35:49.454Z,97.16
2022-10-28T17:39:17.738Z,97.46
2022-10-28T17:42:25.999Z,97.60
2022-10-28T17:45:31.239Z,97.83
2022-10-28T17:48:54.130Z,97.94
2022-10-28T17:51:59.799Z,98.21
2022-10-28T17:55:11.767Z,98.26
2022-10-28T17:58:17.016Z,98.70
2022-10-28T18:01:22.538Z,98.81
2022-10-28T18:04:28.193Z,98.88
2022-10-28T18:07:34.928Z,98.96
2022-10-28T18:10:40.292Z,99.53
2022-10-28T18:13:47.719Z,99.53
2022-10-28T18:16:52.979Z,99.57
2022-10-28T18:20:01.555Z,99.38
2022-10-28T18:23:06.841Z,99.72
2022-10-28T18:26:13.425Z,99.90
2022-10-28T18:29:18.875Z,100.00
2022-10-28T18:32:41.767Z,100.00
2022-10-28T18:35:48.136Z,100.00
2022-10-28T18:38:53.312Z,100.00
2022-10-28T18:42:19.379Z,100.00
2022-10-28T18:45:27.172Z,100.00
2022-10-28T18:48:32.719Z,100.00
2022-10-28T18:51:38.268Z,100.00
2022-10-28T18:54:46.591Z,100.00
2022-10-28T18:57:52.442Z,100.00
2022-10-28T19:01:15.981Z,100.00
2022-10-28T19:04:21.484Z,100.00
2022-10-28T19:07:26.716Z,100.00
2022-10-28T19:10:32.051Z,100.00
2022-10-28T19:13:38.413Z,100.00
2022-10-28T19:17:01.701Z,100.00
2022-10-28T19:20:07.790Z,100.00
2022-10-28T19:23:12.957Z,100.00
2022-10-28T19:26:18.857Z,100.00
2022-10-28T19:29:24.724Z,100.00
2022-10-28T19:32:30.051Z,100.00
2022-10-28T19:35:35.824Z,100.00
2022-10-28T19:38:41.075Z,100.00
2022-10-28T19:41:47.056Z,100.00
2022-10-28T19:44:52.280Z,100.00
2022-10-28T19:48:01.257Z,100.00
2022-10-28T19:51:24.827Z,100.00
2022-10-28T19:54:30.081Z,100.00
2022-10-28T19:57:35.368Z,100.00
2022-10-28T20:00:59.020Z,100.00
2022-10-28T20:04:04.521Z,100.00
2022-10-28T20:07:27.604Z,100.00
2022-10-28T20:10:33.047Z,100.00
2022-10-28T20:13:39.204Z,100.00
2022-10-28T20:17:06.400Z,100.00
2022-10-28T20:20:13.988Z,99.72
2022-10-28T20:23:19.241Z,99.74
2022-10-28T20:26:42.064Z,99.83
2022-10-28T20:29:47.316Z,99.73
2022-10-28T20:32:55.785Z,99.62
2022-10-28T20:36:01.420Z,99.75
2022-10-28T20:39:25.385Z,99.71
2022-10-28T20:42:30.812Z,99.63
2022-10-28T20:45:36.016Z,99.55
2022-10-28T20:48:41.363Z,99.47
2022-10-28T20:51:46.658Z,99.56
2022-10-28T20:55:10.377Z,99.60
2022-10-28T20:58:15.766Z,99.61
2022-10-28T21:01:21.992Z,99.97
2022-10-28T21:04:27.664Z,100.00
2022-10-28T21:07:50.470Z,99.97
2022-10-28T21:11:18.127Z,100.00
2022-10-28T21:14:23.479Z,99.97
2022-10-28T21:17:28.849Z,100.00
2022-10-28T21:20:35.782Z,100.00
2022-10-28T21:23:40.992Z,100.00
2022-10-28T21:26:48.434Z,100.00
2022-10-28T21:29:57.982Z,100.00
2022-10-28T21:33:20.936Z,100.00
2022-10-28T21:36:27.366Z,100.00
2022-10-28T21:39:32.687Z,100.00
2022-10-28T21:42:37.950Z,100.00
2022-10-28T21:45:43.179Z,100.00
2022-10-28T21:48:48.494Z,100.00
2022-10-28T21:52:12.899Z,100.00
2022-10-28T21:55:26.862Z,100.00
2022-10-28T21:58:39.254Z,100.00
2022-10-28T22:01:44.722Z,100.00
2022-10-28T22:05:08.119Z,100.00
2022-10-28T22:08:13.245Z,100.00
2022-10-28T22:11:19.874Z,100.00
2022-10-28T22:14:25.195Z,100.00
2022-10-28T22:17:30.644Z,100.00
2022-10-28T22:20:36.166Z,100.00
2022-10-28T22:23:41.632Z,100.00
2022-10-28T22:26:46.943Z,100.00
2022-10-28T22:29:52.735Z,100.00
2022-10-28T22:32:58.117Z,100.00
2022-10-28T22:36:05.594Z,100.00
2022-10-28T22:39:11.048Z,100.00
2022-10-28T22:42:16.407Z,100.00
2022-10-28T22:45:21.652Z,100.00
2022-10-28T22:48:27.472Z,100.00
2022-10-28T22:51:32.886Z,100.00
2022-10-28T22:54:38.074Z,100.00
2022-10-28T22:57:43.449Z,100.00
2022-10-28T23:00:49.148Z,100.00
2022-10-28T23:03:57.631Z,100.00
2022-10-28T23:07:02.830Z,100.00
2022-10-28T23:10:08.887Z,100.00
2022-10-28T23:13:21.473Z,100.00
2022-10-28T23:16:26.814Z,100.00
2022-10-28T23:19:32.113Z,100.00
2022-10-28T23:22:57.445Z,100.00
2022-10-28T23:26:03.111Z,100.00
2022-10-28T23:29:26.189Z,100.00
2022-10-28T23:32:32.161Z,100.00
2022-10-28T23:35:58.885Z,100.00
2022-10-28T23:39:04.133Z,100.00
2022-10-28T23:42:10.641Z,100.00
2022-10-28T23:45:33.360Z,100.00
2022-10-28T23:48:56.229Z,100.00
2022-10-28T23:52:01.472Z,100.00
2022-10-28T23:55:07.381Z,100.00
2022-10-28T23:58:12.715Z,100.00
